Time;durP1;ratioP1;P1;durP2;ratioP2;P2;SDS_P1;SDS_P2;PMS_P1;PMS_P2;Temp;Humidity;BMP_temperature;BMP_pressure;BME280_temperature;BME280_humidity;BME280_pressure;Samples;Min_cycle;Max_cycle;Signal;HPM_P1;HPM_P2
2021/05/13 00:00:36;;;;;;;7.76;6.48;;;;;;;11.23;74.15;100572.53;462810;112;930412;-71
2021/05/13 00:01:39;;;;;;;7.51;6.77;;;;;;;11.22;74.20;100577.16;460735;112;922894;-71
2021/05/13 00:02:43;;;;;;;7.20;6.51;;;;;;;11.23;74.23;100578.00;461810;112;930526;-71
2021/05/13 00:03:48;;;;;;;6.75;6.18;;;;;;;11.23;74.31;100581.56;462620;112;922983;-71
2021/05/13 00:04:51;;;;;;;6.92;6.32;;;;;;;11.26;74.32;100583.84;462807;112;922832;-70
2021/05/13 00:05:55;;;;;;;7.21;6.33;;;;;;;11.27;74.35;100582.79;462012;112;922928;-70
2021/05/13 00:06:59;;;;;;;6.66;6.16;;;;;;;11.31;74.32;100585.91;462617;112;922493;-71
2021/05/13 00:08:06;;;;;;;7.11;6.48;;;;;;;11.34;74.27;100581.92;462010;112;922856;-70
2021/05/13 00:09:10;;;;;;;7.99;6.18;;;;;;;11.37;74.21;100584.19;461322;112;922978;-70
2021/05/13 00:10:19;;;;;;;6.86;6.12;;;;;;;11.41;74.16;100582.72;462375;112;922524;-69
2021/05/13 00:11:33;;;;;;;8.57;6.85;;;;;;;11.43;74.04;100575.97;462422;112;922625;-68
2021/05/13 00:13:45;;;;;;;8.42;7.16;;;;;;;11.48;73.95;100584.33;454389;112;924533;-71
2021/05/13 00:14:49;;;;;;;7.77;7.09;;;;;;;11.48;73.90;100587.05;463011;112;922792;-71
2021/05/13 00:15:53;;;;;;;7.55;6.62;;;;;;;11.51;73.85;100591.26;462281;112;923218;-70
2021/05/13 00:16:58;;;;;;;6.46;5.96;;;;;;;11.52;73.82;100590.20;461911;112;922606;-71
2021/05/13 00:18:03;;;;;;;7.88;6.54;;;;;;;11.51;73.76;100589.37;461418;112;924426;-71
2021/05/13 00:19:10;;;;;;;7.48;6.66;;;;;;;11.52;73.73;100584.74;462762;112;924498;-70
2021/05/13 00:20:17;;;;;;;6.83;6.21;;;;;;;11.53;73.68;100580.93;462467;112;924001;-71
2021/05/13 00:21:22;;;;;;;7.56;6.87;;;;;;;11.52;73.62;100584.74;462809;112;925171;-70
2021/05/13 00:22:27;;;;;;;7.19;6.59;;;;;;;11.50;73.64;100586.84;462797;112;924027;-70
2021/05/13 00:23:30;;;;;;;7.30;6.54;;;;;;;11.47;73.51;100579.92;460861;112;925591;-70
2021/05/13 00:24:34;;;;;;;7.34;6.56;;;;;;;11.45;73.38;100590.24;462141;112;925705;-70
2021/05/13 00:25:38;;;;;;;7.00;6.40;;;;;;;11.42;73.25;100584.37;462121;111;931945;-70
2021/05/13 00:26:47;;;;;;;7.36;6.68;;;;;;;11.37;73.20;100593.22;463179;112;930352;-70
2021/05/13 00:27:48;;;;;;;6.39;5.89;;;;;;;11.32;73.24;100590.31;461974;112;930524;-70
2021/05/13 00:28:52;;;;;;;7.27;6.64;;;;;;;11.28;73.33;100587.20;462709;112;926406;-70
2021/05/13 00:29:55;;;;;;;7.26;6.71;;;;;;;11.27;73.50;100588.25;462099;112;924479;-71
2021/05/13 00:30:59;;;;;;;7.57;6.88;;;;;;;11.25;73.54;100590.35;462174;112;922482;-70
2021/05/13 00:32:04;;;;;;;6.90;6.17;;;;;;;11.26;73.55;100594.76;463263;112;925596;-70
2021/05/13 00:33:08;;;;;;;7.48;6.83;;;;;;;11.27;73.62;100593.70;462410;112;931967;-70
2021/05/13 00:34:11;;;;;;;7.59;6.89;;;;;;;11.28;73.52;100594.55;462696;112;930379;-69
2021/05/13 00:35:17;;;;;;;7.46;6.72;;;;;;;11.28;73.48;100591.81;462174;112;925366;-69
2021/05/13 00:36:21;;;;;;;8.38;7.23;;;;;;;11.28;73.25;100602.73;462859;112;926726;-70
2021/05/13 00:37:25;;;;;;;7.75;7.05;;;;;;;11.24;73.17;100596.89;452587;114;924103;-71
2021/05/13 00:38:29;;;;;;;12.18;6.24;;;;;;;11.19;73.13;100602.14;454372;112;924065;-69
2021/05/13 00:39:33;;;;;;;7.46;6.77;;;;;;;11.15;73.10;100600.07;462210;112;926139;-70
2021/05/13 00:40:37;;;;;;;8.91;6.95;;;;;;;11.11;73.13;100601.57;461579;112;922390;-71
2021/05/13 00:41:40;;;;;;;7.58;6.82;;;;;;;11.08;73.25;100604.75;461648;112;923475;-70
2021/05/13 00:42:44;;;;;;;7.64;7.04;;;;;;;11.06;73.37;100604.11;461390;112;922818;-70
2021/05/13 00:43:47;;;;;;;8.96;7.55;;;;;;;11.04;73.48;100600.75;462470;112;923085;-70
2021/05/13 00:44:55;;;;;;;9.37;6.78;;;;;;;11.05;73.61;100600.55;461722;112;922826;-69
2021/05/13 00:45:59;;;;;;;7.63;7.04;;;;;;;11.07;73.63;100598.45;463235;112;922496;-70
2021/05/13 00:47:04;;;;;;;8.26;7.18;;;;;;;11.09;73.58;100599.05;462379;112;922674;-69
2021/05/13 00:48:14;;;;;;;7.62;7.02;;;;;;;11.10;73.41;100595.27;461669;112;930477;-69
2021/05/13 00:49:15;;;;;;;7.97;6.90;;;;;;;11.09;73.34;100600.94;461523;112;930354;-71
2021/05/13 00:50:19;;;;;;;7.42;6.78;;;;;;;11.07;73.36;100594.88;462887;112;922634;-70
2021/05/13 00:51:23;;;;;;;8.09;7.37;;;;;;;11.05;73.29;100599.70;462353;112;922731;-70
2021/05/13 00:52:27;;;;;;;7.91;7.00;;;;;;;11.04;73.34;100598.03;462486;112;930688;-71
2021/05/13 00:53:31;;;;;;;7.40;6.73;;;;;;;11.04;73.44;100603.48;462295;112;922497;-70
2021/05/13 00:54:37;;;;;;;7.04;6.41;;;;;;;11.04;73.44;100603.48;462147;112;922683;-71
2021/05/13 00:55:41;;;;;;;7.61;6.87;;;;;;;11.05;73.43;100608.73;462373;112;922868;-72
2021/05/13 00:56:45;;;;;;;7.09;6.38;;;;;;;11.05;73.44;100602.44;462460;112;923487;-71
2021/05/13 00:57:52;;;;;;;6.72;6.17;;;;;;;11.07;73.36;100605.80;463261;112;922800;-71
2021/05/13 00:59:02;;;;;;;7.58;6.96;;;;;;;11.06;73.26;100595.93;462672;112;924082;-71
2021/05/13 01:00:19;;;;;;;7.31;6.67;;;;;;;11.04;73.24;100601.59;462078;112;922535;-71
2021/05/13 01:01:16;;;;;;;7.52;6.82;;;;;;;11.03;73.25;100596.34;459158;112;922423;-71
2021/05/13 01:02:20;;;;;;;6.56;5.93;;;;;;;11.01;73.29;100596.59;462343;112;922607;-71
2021/05/13 01:03:25;;;;;;;8.77;6.47;;;;;;;10.99;73.29;100601.41;461898;112;922790;-71
2021/05/13 01:04:29;;;;;;;8.10;6.55;;;;;;;11.01;73.26;100603.94;452402;115;922916;-69
2021/05/13 01:05:34;;;;;;;7.67;6.97;;;;;;;10.98;73.21;100602.46;453747;112;924159;-70
2021/05/13 01:06:38;;;;;;;7.34;6.73;;;;;;;10.96;73.17;100599.13;462207;112;925115;-71
2021/05/13 01:07:42;;;;;;;9.32;7.19;;;;;;;10.94;73.11;100598.50;462764;112;922695;-70
2021/05/13 01:08:48;;;;;;;8.50;7.11;;;;;;;10.92;73.13;100600.59;462261;112;922723;-70
2021/05/13 01:09:52;;;;;;;6.54;5.99;;;;;;;10.89;73.10;100601.05;461105;112;922412;-70
2021/05/13 01:10:56;;;;;;;6.68;6.08;;;;;;;10.88;73.14;100602.09;461738;112;924030;-70
2021/05/13 01:12:07;;;;;;;7.19;6.51;;;;;;;10.87;73.21;100603.14;462148;112;926233;-70
2021/05/13 01:13:14;;;;;;;7.54;6.93;;;;;;;10.86;73.22;100598.77;462069;112;922638;-71
2021/05/13 01:14:31;;;;;;;7.14;6.27;;;;;;;10.85;73.23;100599.81;462483;112;923003;-70
2021/05/13 01:18:22;;;;;;;7.98;7.24;;;;;;;10.79;73.44;100601.51;480262;109;925454;-70
2021/05/13 01:19:24;;;;;;;7.06;6.41;;;;;;;10.79;73.53;100600.67;478744;109;924219;-70
2021/05/13 01:20:30;;;;;;;7.11;6.41;;;;;;;10.80;73.54;100600.46;487274;105;926989;-71
2021/05/13 01:21:39;;;;;;;7.51;6.12;;;;;;;10.82;73.51;100595.61;479947;107;931934;-71
2021/05/13 01:22:43;;;;;;;7.87;6.66;;;;;;;10.85;73.52;100605.27;475660;109;925795;-72
2021/05/13 01:23:47;;;;;;;7.20;6.39;;;;;;;10.86;73.44;100605.02;479064;107;926568;-72
2021/05/13 01:24:52;;;;;;;6.81;6.16;;;;;;;10.86;73.28;100604.22;487163;105;923925;-72
2021/05/13 01:25:56;;;;;;;7.51;6.71;;;;;;;10.85;73.08;100591.62;484739;106;924304;-70
2021/05/13 01:26:59;;;;;;;7.05;6.16;;;;;;;10.82;73.00;100594.77;485870;107;928114;-72
2021/05/13 01:28:03;;;;;;;7.25;6.63;;;;;;;10.76;72.91;100593.74;482674;107;922761;-70
2021/05/13 01:29:07;;;;;;;6.89;6.26;;;;;;;10.73;72.86;100599.64;487368;107;932813;-71
2021/05/13 01:30:12;;;;;;;8.04;6.64;;;;;;;10.68;72.86;100599.45;486192;107;923709;-71
2021/05/13 01:31:18;;;;;;;6.91;6.28;;;;;;;10.63;72.91;100601.98;486929;107;930626;-70
2021/05/13 01:32:21;;;;;;;9.81;6.52;;;;;;;10.57;73.00;100602.84;486706;107;923101;-71
2021/05/13 01:33:26;;;;;;;7.69;6.87;;;;;;;10.55;73.12;100598.64;485682;105;922443;-72
2021/05/13 01:34:30;;;;;;;7.32;6.66;;;;;;;10.51;73.18;100606.42;479242;107;922791;-70
2021/05/13 01:35:34;;;;;;;6.42;5.54;;;;;;;10.49;73.19;100608.52;479764;107;922548;-71
2021/05/13 01:36:38;;;;;;;7.79;6.55;;;;;;;10.45;73.19;100608.11;477220;109;930608;-70
2021/05/13 01:37:42;;;;;;;10.14;6.85;;;;;;;10.43;73.27;100601.19;486386;105;923699;-71
2021/05/13 01:38:45;;;;;;;6.11;5.69;;;;;;;10.40;73.39;100607.08;487679;106;922755;-71
2021/05/13 01:39:50;;;;;;;7.33;6.75;;;;;;;10.39;73.46;100608.97;484275;105;922722;-71
2021/05/13 01:40:57;;;;;;;9.91;6.28;;;;;;;10.38;73.54;100612.73;487116;106;922301;-69
2021/05/13 01:42:00;;;;;;;8.84;6.43;;;;;;;10.38;73.59;100612.73;481734;109;922509;-70
2021/05/13 01:43:05;;;;;;;6.91;6.32;;;;;;;10.39;73.61;100616.30;488328;106;922487;-70
2021/05/13 01:44:10;;;;;;;8.67;6.56;;;;;;;10.38;73.68;100618.19;480159;109;930472;-70
2021/05/13 01:45:13;;;;;;;8.42;7.52;;;;;;;10.40;73.78;100609.80;475543;108;922560;-70
2021/05/13 01:46:17;;;;;;;10.52;7.65;;;;;;;10.41;73.84;100620.50;479348;109;922860;-71
2021/05/13 01:47:22;;;;;;;8.28;7.58;;;;;;;10.43;73.86;100623.83;479765;107;922497;-71
2021/05/13 01:48:26;;;;;;;7.81;7.14;;;;;;;10.48;73.96;100612.28;480426;107;922903;-71
2021/05/13 01:49:32;;;;;;;7.82;6.76;;;;;;;10.51;73.95;100625.50;485154;106;922460;-72
2021/05/13 01:50:36;;;;;;;8.55;7.48;;;;;;;10.54;73.95;100616.89;477210;107;922507;-71
2021/05/13 01:51:39;;;;;;;7.09;6.50;;;;;;;10.60;73.86;100626.09;479980;109;922544;-71
2021/05/13 01:52:43;;;;;;;6.41;5.84;;;;;;;10.64;73.77;100619.19;479482;107;924014;-71
2021/05/13 01:53:46;;;;;;;9.24;6.44;;;;;;;10.68;73.61;100631.34;478935;108;931971;-70
2021/05/13 01:54:50;;;;;;;6.78;6.22;;;;;;;10.71;73.46;100628.16;479147;108;932915;-71
2021/05/13 01:55:54;;;;;;;7.06;6.42;;;;;;;10.71;73.34;100626.28;478105;107;925602;-71
2021/05/13 01:57:03;;;;;;;6.42;5.81;;;;;;;10.71;73.31;100633.62;477144;109;924769;-70
2021/05/13 01:58:07;;;;;;;7.54;6.54;;;;;;;10.70;73.22;100623.75;460476;112;923145;-71
2021/05/13 01:59:11;;;;;;;6.82;6.25;;;;;;;10.65;73.05;100626.30;454632;113;923985;-71
2021/05/13 02:00:16;;;;;;;7.19;6.58;;;;;;;10.65;73.05;100626.30;458661;111;930410;-70
2021/05/13 02:01:20;;;;;;;7.09;6.38;;;;;;;10.65;73.08;100631.75;463488;109;925152;-71
2021/05/13 02:02:24;;;;;;;6.18;5.62;;;;;;;10.62;73.09;100634.91;468678;110;930885;-71
2021/05/13 02:03:28;;;;;;;8.52;6.44;;;;;;;10.60;73.09;100634.28;467689;110;922479;-71
2021/05/13 02:04:31;;;;;;;8.41;6.02;;;;;;;10.57;73.10;100635.56;467944;110;922718;-70
2021/05/13 02:05:36;;;;;;;7.07;6.38;;;;;;;10.54;73.14;100635.97;466183;110;925385;-68
2021/05/13 02:06:40;;;;;;;8.09;6.85;;;;;;;10.54;73.20;100635.12;467150;110;925286;-70
2021/05/13 02:07:44;;;;;;;7.60;6.84;;;;;;;10.53;73.30;100633.48;468872;110;933503;-71
2021/05/13 02:08:49;;;;;;;8.28;6.16;;;;;;;10.53;73.32;100634.28;468602;110;924001;-69
2021/05/13 02:09:53;;;;;;;6.56;5.93;;;;;;;10.53;73.33;100633.48;466039;110;922491;-71
2021/05/13 02:10:59;;;;;;;7.16;6.18;;;;;;;10.53;73.30;100636.20;468427;110;922635;-70
2021/05/13 02:12:04;;;;;;;6.78;6.21;;;;;;;10.52;73.33;100629.91;467000;110;930585;-72
2021/05/13 02:13:08;;;;;;;7.03;6.42;;;;;;;10.53;73.40;100630.75;467089;110;930943;-71
2021/05/13 02:14:12;;;;;;;6.86;6.24;;;;;;;10.53;73.42;100625.30;465198;110;924808;-72
2021/05/13 02:15:18;;;;;;;6.88;6.09;;;;;;;10.54;73.47;100619.61;466306;110;923970;-71
2021/05/13 02:16:22;;;;;;;7.00;6.21;;;;;;;10.56;73.59;100636.61;467242;110;922951;-70
2021/05/13 02:17:26;;;;;;;7.23;6.56;;;;;;;10.58;73.70;100636.41;466706;110;922642;-69
2021/05/13 02:18:31;;;;;;;8.26;6.07;;;;;;;10.63;73.77;100642.05;466583;110;931214;-70
2021/05/13 02:19:35;;;;;;;7.39;6.72;;;;;;;10.66;73.86;100630.70;466754;110;922766;-71
2021/05/13 02:20:39;;;;;;;6.44;5.68;;;;;;;10.70;73.85;100629.21;466878;110;922298;-71
2021/05/13 02:21:42;;;;;;;7.17;5.83;;;;;;;10.72;73.72;100641.59;466267;110;927167;-71
2021/05/13 02:22:46;;;;;;;6.39;5.76;;;;;;;10.73;73.74;100637.82;466721;110;933192;-68
2021/05/13 02:23:50;;;;;;;6.32;5.72;;;;;;;10.75;73.77;100640.34;467059;110;930547;-70
2021/05/13 02:24:54;;;;;;;6.89;6.24;;;;;;;10.78;73.72;100642.62;466749;110;923270;-72
2021/05/13 02:25:59;;;;;;;7.41;6.03;;;;;;;10.81;73.65;100640.30;465880;110;922514;-71
2021/05/13 02:27:03;;;;;;;7.87;5.98;;;;;;;10.86;73.58;100636.95;469076;110;922348;-70
2021/05/13 02:28:07;;;;;;;7.88;6.41;;;;;;;10.90;73.52;100640.91;468201;110;922647;-71
2021/05/13 02:29:10;;;;;;;6.69;5.78;;;;;;;10.95;73.37;100642.98;467973;110;922526;-70
2021/05/13 02:30:15;;;;;;;7.51;6.71;;;;;;;10.98;73.29;100643.38;466327;110;930348;-70
2021/05/13 02:31:19;;;;;;;6.64;6.04;;;;;;;11.02;73.24;100644.66;460763;112;923202;-68
2021/05/13 02:32:22;;;;;;;7.47;6.45;;;;;;;11.06;73.17;100645.05;460169;112;922471;-69
2021/05/13 02:33:26;;;;;;;8.69;6.42;;;;;;;11.09;73.04;100650.05;466459;110;922595;-70
2021/05/13 02:34:29;;;;;;;6.56;5.91;;;;;;;11.12;72.91;100649.64;465714;112;930363;-71
2021/05/13 02:35:33;;;;;;;6.30;5.86;;;;;;;11.14;72.77;100644.78;467570;110;922785;-70
2021/05/13 02:36:36;;;;;;;8.03;6.76;;;;;;;11.17;72.69;100647.94;467298;110;922419;-69
2021/05/13 02:37:41;;;;;;;6.88;6.29;;;;;;;11.19;72.62;100645.00;466551;110;930590;-71
2021/05/13 02:38:44;;;;;;;7.14;6.48;;;;;;;11.20;72.57;100641.19;465360;110;922950;-71
2021/05/13 02:39:48;;;;;;;6.77;6.24;;;;;;;11.22;72.42;100648.12;466990;110;922690;-72
2021/05/13 02:40:52;;;;;;;7.02;6.41;;;;;;;11.22;72.37;100645.39;467184;110;930934;-71
2021/05/13 02:41:56;;;;;;;8.43;5.91;;;;;;;11.21;72.32;100648.33;465006;110;924200;-70
2021/05/13 02:43:00;;;;;;;7.28;6.59;;;;;;;11.19;72.36;100645.80;467350;110;922784;-71
2021/05/13 02:44:04;;;;;;;7.12;6.43;;;;;;;11.18;72.33;100646.88;466166;110;924100;-70
2021/05/13 02:45:10;;;;;;;7.22;6.04;;;;;;;11.14;72.29;100653.80;465881;110;934017;-69
2021/05/13 02:46:14;;;;;;;6.71;6.18;;;;;;;11.10;72.31;100643.55;465671;110;923996;-71
2021/05/13 02:47:18;;;;;;;7.94;6.24;;;;;;;11.04;72.46;100653.44;465523;110;923972;-71
2021/05/13 02:48:22;;;;;;;6.76;6.15;;;;;;;11.00;72.51;100654.93;468109;110;926263;-72
2021/05/13 02:49:26;;;;;;;7.07;6.16;;;;;;;10.96;72.61;100650.97;468507;110;924029;-71
2021/05/13 02:50:30;;;;;;;6.78;6.14;;;;;;;10.93;72.74;100656.00;467046;110;922679;-70
2021/05/13 02:51:34;;;;;;;7.06;6.46;;;;;;;10.90;72.93;100660.01;465872;110;926034;-72
2021/05/13 02:52:38;;;;;;;6.48;5.89;;;;;;;10.92;73.08;100654.31;468527;110;922963;-70
2021/05/13 02:53:42;;;;;;;10.01;6.02;;;;;;;10.93;73.20;100651.38;467514;110;924077;-70
2021/05/13 02:54:46;;;;;;;6.95;6.34;;;;;;;10.95;73.30;100657.47;466071;110;923118;-71
2021/05/13 02:55:50;;;;;;;6.52;5.93;;;;;;;10.98;73.35;100657.02;467252;110;922545;-70
2021/05/13 02:56:54;;;;;;;9.17;6.17;;;;;;;11.00;73.43;100657.66;467336;110;926005;-71
2021/05/13 02:58:00;;;;;;;5.96;5.45;;;;;;;11.02;73.45;100652.84;465655;110;922573;-70
2021/05/13 02:59:04;;;;;;;7.46;6.29;;;;;;;11.03;73.45;100654.48;467510;110;931961;-71
2021/05/13 03:00:28;;;;;;;7.16;6.23;;;;;;;11.05;73.42;100660.58;467781;110;922477;-70
2021/05/13 03:01:29;;;;;;;7.36;6.17;;;;;;;11.06;73.35;100658.69;466144;110;931962;-71
2021/05/13 03:02:33;;;;;;;6.65;6.09;;;;;;;11.04;73.41;100661.63;466409;110;924738;-70
2021/05/13 03:03:38;;;;;;;8.31;7.28;;;;;;;11.02;73.48;100658.30;466708;110;925411;-71
2021/05/13 03:04:43;;;;;;;7.11;6.30;;;;;;;11.01;73.46;100653.88;467210;110;922895;-69
2021/05/13 03:05:46;;;;;;;6.68;5.64;;;;;;;11.00;73.51;100659.55;474196;108;922985;-71
2021/05/13 03:06:51;;;;;;;7.05;6.36;;;;;;;10.98;73.59;100664.37;473141;110;924069;-70
2021/05/13 03:07:59;;;;;;;6.29;5.75;;;;;;;10.97;73.65;100659.99;465152;110;922470;-71
2021/05/13 03:09:03;;;;;;;7.14;6.03;;;;;;;10.96;73.70;100659.16;466984;110;931957;-70
2021/05/13 03:10:16;;;;;;;6.90;6.39;;;;;;;10.96;73.77;100659.16;466990;110;925586;-71
2021/05/13 03:11:14;;;;;;;6.29;5.71;;;;;;;10.97;73.88;100655.34;467738;110;922456;-71
2021/05/13 03:12:17;;;;;;;6.87;6.30;;;;;;;10.97;73.81;100660.80;466551;110;924078;-70
2021/05/13 03:13:24;;;;;;;6.74;5.79;;;;;;;10.97;73.77;100658.07;466464;110;924759;-70
2021/05/13 03:14:27;;;;;;;8.51;5.53;;;;;;;10.98;73.84;100659.75;468476;110;930623;-70
2021/05/13 03:15:32;;;;;;;7.51;6.41;;;;;;;10.98;73.93;100661.64;466038;110;922390;-70
2021/05/13 03:16:35;;;;;;;6.71;5.78;;;;;;;10.99;73.96;100655.98;466714;110;922602;-71
2021/05/13 03:17:39;;;;;;;9.17;5.88;;;;;;;10.99;73.91;100653.25;467675;110;930390;-70
2021/05/13 03:18:46;;;;;;;6.99;6.23;;;;;;;10.99;73.91;100650.52;465763;110;932461;-72
2021/05/13 03:19:52;;;;;;;7.18;6.49;;;;;;;10.98;74.01;100654.30;465099;110;930337;-70
2021/05/13 03:21:40;;;;;;;6.68;6.04;;;;;;;11.00;74.10;100654.09;467242;110;922587;-70
2021/05/13 03:22:07;;;;;;;6.57;5.97;;;;;;;11.01;74.19;100645.70;465882;110;922901;-72
2021/05/13 03:23:12;;;;;;;6.45;5.85;;;;;;;11.05;74.25;100654.28;466534;112;922975;-72
2021/05/13 03:25:02;;;;;;;6.93;6.27;;;;;;;11.09;74.29;100644.59;467002;110;922456;-71
2021/05/13 03:25:27;;;;;;;6.83;6.15;;;;;;;11.12;74.24;100647.75;466481;110;922863;-70
2021/05/13 03:27:54;;;;;;;8.94;8.12;;;;;;;11.19;74.33;100645.80;466892;110;922513;-72
2021/05/13 03:28:54;;;;;;;7.81;7.12;;;;;;;11.24;74.38;100646.02;466204;110;922472;-70
2021/05/13 03:29:57;;;;;;;7.71;7.01;;;;;;;11.32;74.33;100652.26;467683;110;922663;-71
2021/05/13 03:31:01;;;;;;;6.12;5.58;;;;;;;11.37;74.30;100649.71;467363;110;922491;-71
2021/05/13 03:32:05;;;;;;;6.49;5.97;;;;;;;11.43;74.20;100646.11;468865;110;930442;-70
2021/05/13 03:33:09;;;;;;;7.05;5.96;;;;;;;11.49;74.07;100640.62;465957;110;930451;-70
2021/05/13 03:34:14;;;;;;;7.24;5.19;;;;;;;11.54;73.97;100642.69;469087;110;922492;-71
2021/05/13 03:35:18;;;;;;;7.87;5.63;;;;;;;11.58;73.88;100643.91;468475;110;922887;-71
2021/05/13 03:36:22;;;;;;;6.65;5.78;;;;;;;11.58;73.82;100639.28;466350;110;924085;-70
2021/05/13 03:37:27;;;;;;;10.12;5.92;;;;;;;11.58;73.73;100636.55;467075;110;930371;-71
2021/05/13 03:38:31;;;;;;;6.94;5.52;;;;;;;11.58;73.63;100636.55;467797;110;930644;-70
2021/05/13 03:39:34;;;;;;;7.42;6.26;;;;;;;11.54;73.71;100638.06;467423;110;922914;-70
2021/05/13 03:40:40;;;;;;;7.58;6.28;;;;;;;11.52;73.79;100634.70;470691;110;922677;-71
2021/05/13 03:41:43;;;;;;;6.22;5.68;;;;;;;11.53;73.88;100630.08;466357;110;925417;-70
2021/05/13 03:42:47;;;;;;;7.43;5.84;;;;;;;11.54;74.03;100626.30;467177;110;922973;-70
2021/05/13 03:43:51;;;;;;;7.46;6.82;;;;;;;11.57;74.09;100629.45;466828;110;922510;-71
2021/05/13 03:44:55;;;;;;;6.94;6.32;;;;;;;11.62;74.18;100628.78;464511;112;930573;-71
2021/05/13 03:45:58;;;;;;;6.91;5.75;;;;;;;11.67;74.16;100629.80;466834;110;922623;-71
2021/05/13 03:47:02;;;;;;;7.12;6.20;;;;;;;11.71;74.13;100630.17;467010;110;922776;-71
2021/05/13 03:48:06;;;;;;;6.63;5.44;;;;;;;11.74;74.12;100634.41;466892;110;922419;-71
2021/05/13 03:49:09;;;;;;;6.42;5.80;;;;;;;11.75;74.04;100631.43;466601;110;922719;-70
2021/05/13 03:50:14;;;;;;;8.76;6.50;;;;;;;11.77;74.02;100632.06;466283;110;922501;-71
2021/05/13 03:51:18;;;;;;;6.06;5.55;;;;;;;11.79;74.01;100621.77;465282;110;930883;-72
2021/05/13 03:52:21;;;;;;;7.03;6.04;;;;;;;11.81;74.03;100616.89;466874;110;923991;-71
2021/05/13 03:53:25;;;;;;;8.36;6.39;;;;;;;11.83;74.08;100622.98;466200;110;922908;-71
2021/05/13 03:54:28;;;;;;;9.06;5.58;;;;;;;11.89;74.07;100623.98;465753;110;933050;-69
2021/05/13 03:55:33;;;;;;;6.28;5.76;;;;;;;11.93;74.04;100628.78;468271;110;924016;-69
2021/05/13 03:56:37;;;;;;;8.15;5.78;;;;;;;11.99;73.96;100632.52;468557;110;922427;-72
2021/05/13 03:57:41;;;;;;;8.87;5.31;;;;;;;12.02;73.86;100630.16;467774;110;924870;-71
2021/05/13 03:58:58;;;;;;;6.15;5.01;;;;;;;12.04;73.76;100630.79;469419;109;922728;-71
2021/05/13 03:59:59;;;;;;;6.14;5.37;;;;;;;12.06;73.67;100630.58;469326;109;924717;-70
2021/05/13 04:03:34;;;;;;;6.44;5.83;;;;;;;12.15;73.55;100628.38;472790;110;948685;-70
2021/05/13 04:04:38;;;;;;;6.53;5.11;;;;;;;12.02;73.56;100640.26;463762;112;924044;-71
2021/05/13 04:05:42;;;;;;;8.14;4.75;;;;;;;11.99;73.57;100647.02;464271;113;930602;-72
2021/05/13 04:06:46;;;;;;;5.64;5.14;;;;;;;11.97;73.61;100646.39;455006;114;923035;-74
2021/05/13 04:07:50;;;;;;;7.20;5.12;;;;;;;11.95;73.63;100642.23;453890;114;924040;-70
2021/05/13 04:08:53;;;;;;;6.71;5.74;;;;;;;11.93;73.70;100641.60;453784;113;924177;-71
2021/05/13 04:09:57;;;;;;;6.68;5.26;;;;;;;11.91;73.79;100647.28;454577;114;923637;-70
2021/05/13 04:11:01;;;;;;;6.06;5.36;;;;;;;11.90;73.84;100648.36;454957;114;922813;-72
2021/05/13 04:12:05;;;;;;;5.15;4.70;;;;;;;11.88;73.93;100645.00;455144;114;930458;-72
2021/05/13 04:13:14;;;;;;;6.19;5.16;;;;;;;11.88;74.02;100645.00;455877;114;923466;-69
2021/05/13 04:14:20;;;;;;;6.47;5.27;;;;;;;11.89;74.11;100654.88;452248;114;922987;-71
2021/05/13 04:15:24;;;;;;;6.45;5.06;;;;;;;11.90;74.14;100647.52;455312;114;922580;-72
2021/05/13 04:16:29;;;;;;;5.79;5.03;;;;;;;11.89;74.18;100652.15;455790;113;923419;-70
2021/05/13 04:17:38;;;;;;;6.05;5.34;;;;;;;11.89;74.29;100657.61;455478;114;922622;-68
2021/05/13 04:18:44;;;;;;;5.59;5.05;;;;;;;11.90;74.45;100652.98;453760;114;932131;-70
2021/05/13 04:19:49;;;;;;;5.83;5.29;;;;;;;11.90;74.58;100653.83;454430;116;922465;-71
2021/05/13 04:20:54;;;;;;;8.38;4.84;;;;;;;11.91;74.63;100655.48;453504;114;922522;-69
2021/05/13 04:21:59;;;;;;;6.24;4.31;;;;;;;11.94;74.69;100660.52;455025;115;925819;-70
2021/05/13 04:23:03;;;;;;;4.56;4.05;;;;;;;11.97;74.66;100659.22;450576;115;922602;-70
2021/05/13 04:24:08;;;;;;;4.99;4.30;;;;;;;11.99;74.62;100663.42;450495;115;924092;-68
2021/05/13 04:25:12;;;;;;;6.03;4.32;;;;;;;12.01;74.69;100665.94;454630;114;924021;-69
2021/05/13 04:26:17;;;;;;;8.14;5.64;;;;;;;12.05;74.65;100662.53;453649;115;922832;-70
2021/05/13 04:27:20;;;;;;;5.73;4.87;;;;;;;12.08;74.58;100667.54;451934;115;930470;-73
2021/05/13 04:28:24;;;;;;;5.22;4.77;;;;;;;12.11;74.55;100669.84;453977;114;922659;-70
2021/05/13 04:29:27;;;;;;;9.78;4.97;;;;;;;12.16;74.55;100665.59;454559;115;930540;-70
2021/05/13 04:30:32;;;;;;;6.02;5.46;;;;;;;12.18;74.47;100666.22;454552;114;924055;-67
2021/05/13 04:31:36;;;;;;;5.76;5.24;;;;;;;12.23;74.39;100660.92;460217;107;922900;-70
2021/05/13 04:32:40;;;;;;;7.49;6.15;;;;;;;12.25;74.22;100673.28;460599;113;932010;-70
2021/05/13 04:33:44;;;;;;;6.59;5.75;;;;;;;12.28;74.14;100661.08;461898;113;926157;-69
2021/05/13 04:34:47;;;;;;;5.99;5.37;;;;;;;12.30;74.07;100664.41;461458;113;922422;-69
2021/05/13 04:35:51;;;;;;;6.41;5.19;;;;;;;12.32;74.03;100663.14;462741;113;922568;-69
2021/05/13 04:36:55;;;;;;;8.59;6.40;;;;;;;12.35;74.00;100667.34;468507;111;926061;-73
2021/05/13 04:37:59;;;;;;;9.56;6.59;;;;;;;12.38;74.03;100669.61;469575;111;931004;-69
2021/05/13 04:39:04;;;;;;;10.18;6.77;;;;;;;12.41;74.04;100666.41;470158;111;922463;-68
2021/05/13 04:40:09;;;;;;;9.55;6.52;;;;;;;12.45;73.94;100667.66;460979;114;924493;-67
2021/05/13 04:41:13;;;;;;;6.98;6.28;;;;;;;12.47;73.81;100666.35;447761;116;924325;-68
2021/05/13 04:42:17;;;;;;;7.72;5.59;;;;;;;12.52;73.70;100668.41;451000;114;922665;-68
2021/05/13 04:43:21;;;;;;;7.08;5.90;;;;;;;12.57;73.61;100668.56;457597;114;925482;-66
2021/05/13 04:44:24;;;;;;;6.22;5.63;;;;;;;12.61;73.62;100667.08;456470;114;932984;-67
2021/05/13 04:45:31;;;;;;;7.81;5.88;;;;;;;12.68;73.59;100673.29;457936;114;932975;-68
2021/05/13 04:46:37;;;;;;;7.94;5.92;;;;;;;12.73;73.50;100673.48;457486;114;924172;-66
2021/05/13 04:49:55;;;;;;;6.39;5.76;;;;;;;12.83;73.33;100673.78;457642;114;922594;-71
2021/05/13 04:50:59;;;;;;;6.79;6.25;;;;;;;12.86;73.14;100667.84;457889;114;923661;-68
2021/05/13 04:52:04;;;;;;;8.26;6.89;;;;;;;12.88;72.97;100660.25;457708;114;932083;-68
2021/05/13 04:53:08;;;;;;;7.22;6.62;;;;;;;12.91;72.87;100673.47;458533;114;930507;-68
2021/05/13 04:54:14;;;;;;;6.77;6.15;;;;;;;12.93;72.81;100662.30;458431;114;930559;-68
2021/05/13 04:55:17;;;;;;;18.94;6.95;;;;;;;12.95;72.83;100657.44;458289;114;922657;-68
2021/05/13 04:56:22;;;;;;;8.52;7.27;;;;;;;12.98;72.74;100656.97;459134;114;924181;-68
2021/05/13 04:57:27;;;;;;;7.68;6.99;;;;;;;13.01;72.69;100655.69;459203;114;922986;-69
2021/05/13 04:58:30;;;;;;;8.11;7.43;;;;;;;13.04;72.37;100653.33;458910;114;922506;-68
2021/05/13 04:59:34;;;;;;;12.12;7.75;;;;;;;13.08;72.32;100656.42;459024;114;926513;-67
2021/05/13 05:00:39;;;;;;;7.91;7.09;;;;;;;13.10;72.29;100649.67;460162;114;922740;-66
2021/05/13 05:01:44;;;;;;;8.04;7.40;;;;;;;13.15;72.04;100657.22;458268;114;923159;-68
2021/05/13 05:02:48;;;;;;;7.84;7.06;;;;;;;13.20;71.63;100651.89;459596;114;923053;-68
2021/05/13 05:03:51;;;;;;;8.74;7.39;;;;;;;13.26;71.37;100645.50;459412;114;922790;-67
2021/05/13 05:04:55;;;;;;;7.48;6.88;;;;;;;13.30;71.11;100644.80;457216;114;922762;-66
2021/05/13 05:05:59;;;;;;;10.08;8.15;;;;;;;13.34;70.88;100640.52;458173;114;925293;-68
2021/05/13 05:07:02;;;;;;;8.11;7.31;;;;;;;13.43;70.59;100634.73;457154;114;922832;-68